LFKC/CLY METAR and TAF weather

Enter ICAO airport designator
Station Type Date Time Source
LFKC METAR 2021/07/26 12:30 UTC NOAA

LFKC 261230Z AUTO 34008KT 310V030 9999 FEW031 30/22 Q1011 BECMG 23010KT


Station Type Date Time Source
LFKC Decoded METAR 2021/07/26 12:30 UTC NOAA

Calvi, France (LFKC) 42-32N 008-48E 58M
Jul 26, 2021 - 08:30 AM EDT / 2021.07.26 1230 UTC
Wind: from the NNW (340 degrees) at 9 MPH (8 KT) (direction variable):0
Visibility: greater than 7 mile(s):0
Sky conditions: mostly clear
Temperature: 86 F (30 C)
Heat index: 91.8 F (33.2 C):1
Dew Point: 71 F (22 C)
Relative Humidity: 62%
Pressure (altimeter): 29.85 in. Hg (1011 hPa)
ob: LFKC 261230Z AUTO 34008KT 310V030 9999 FEW031 30/22 Q1011 BECMG 23010KT
cycle: 12

Station Type Date Time Source
LFKC TAF 2021/07/26 09:23 UTC NOAA

TAF LFKC 260800Z 2609/2709 36010KT 9999 FEW015 TX31/2612Z TN22/2704Z
BECMG 2611/2613 23010KT
BECMG 2619/2620 19005KT

Example: see airport list